sensor_id;sensor_type;location;lat;lon;timestamp;P1;durP1;ratioP1;P2;durP2;ratioP2
2874;SDS011;1445;52.600;13.328;2023-02-15T00:01:39;39.72;;;18.30;;
2874;SDS011;1445;52.600;13.328;2023-02-15T00:04:06;40.60;;;18.88;;
2874;SDS011;1445;52.600;13.328;2023-02-15T00:06:32;41.28;;;19.48;;
2874;SDS011;1445;52.600;13.328;2023-02-15T00:08:58;45.03;;;20.20;;
2874;SDS011;1445;52.600;13.328;2023-02-15T00:11:25;41.05;;;19.52;;
2874;SDS011;1445;52.600;13.328;2023-02-15T00:14:11;43.50;;;19.15;;
2874;SDS011;1445;52.600;13.328;2023-02-15T00:16:37;44.53;;;19.98;;
2874;SDS011;1445;52.600;13.328;2023-02-15T00:19:03;39.47;;;18.85;;
2874;SDS011;1445;52.600;13.328;2023-02-15T00:21:30;38.75;;;17.63;;
2874;SDS011;1445;52.600;13.328;2023-02-15T00:23:58;42.13;;;18.52;;
2874;SDS011;1445;52.600;13.328;2023-02-15T00:26:25;40.85;;;18.27;;
2874;SDS011;1445;52.600;13.328;2023-02-15T00:28:51;40.00;;;18.52;;
2874;SDS011;1445;52.600;13.328;2023-02-15T00:31:17;43.22;;;20.10;;
2874;SDS011;1445;52.600;13.328;2023-02-15T00:33:42;43.88;;;20.00;;
2874;SDS011;1445;52.600;13.328;2023-02-15T00:36:08;39.08;;;20.70;;
2874;SDS011;1445;52.600;13.328;2023-02-15T00:38:35;43.90;;;22.02;;
2874;SDS011;1445;52.600;13.328;2023-02-15T00:41:01;43.63;;;21.45;;
2874;SDS011;1445;52.600;13.328;2023-02-15T00:43:29;41.28;;;20.02;;
2874;SDS011;1445;52.600;13.328;2023-02-15T00:45:55;44.55;;;22.20;;
2874;SDS011;1445;52.600;13.328;2023-02-15T00:48:21;41.75;;;20.52;;
2874;SDS011;1445;52.600;13.328;2023-02-15T00:50:51;43.88;;;20.63;;
2874;SDS011;1445;52.600;13.328;2023-02-15T00:53:21;44.15;;;20.40;;
2874;SDS011;1445;52.600;13.328;2023-02-15T00:55:46;39.05;;;19.67;;
2874;SDS011;1445;52.600;13.328;2023-02-15T00:58:12;44.60;;;20.08;;
2874;SDS011;1445;52.600;13.328;2023-02-15T01:00:38;41.95;;;21.00;;
2874;SDS011;1445;52.600;13.328;2023-02-15T01:03:06;39.38;;;20.60;;
2874;SDS011;1445;52.600;13.328;2023-02-15T01:05:31;42.30;;;20.13;;
2874;SDS011;1445;52.600;13.328;2023-02-15T01:07:57;40.78;;;18.90;;
2874;SDS011;1445;52.600;13.328;2023-02-15T01:10:24;44.10;;;19.52;;
2874;SDS011;1445;52.600;13.328;2023-02-15T01:12:50;38.97;;;20.02;;
2874;SDS011;1445;52.600;13.328;2023-02-15T01:15:16;41.15;;;21.25;;
2874;SDS011;1445;52.600;13.328;2023-02-15T01:17:42;42.83;;;20.25;;
2874;SDS011;1445;52.600;13.328;2023-02-15T01:20:09;45.97;;;20.58;;
2874;SDS011;1445;52.600;13.328;2023-02-15T01:22:35;41.10;;;19.58;;
2874;SDS011;1445;52.600;13.328;2023-02-15T01:25:00;40.10;;;19.98;;
2874;SDS011;1445;52.600;13.328;2023-02-15T01:27:25;39.72;;;19.23;;
2874;SDS011;1445;52.600;13.328;2023-02-15T01:29:51;39.55;;;19.40;;
2874;SDS011;1445;52.600;13.328;2023-02-15T01:32:16;45.10;;;20.05;;
2874;SDS011;1445;52.600;13.328;2023-02-15T01:34:41;39.42;;;18.88;;
2874;SDS011;1445;52.600;13.328;2023-02-15T01:37:07;40.35;;;20.42;;
2874;SDS011;1445;52.600;13.328;2023-02-15T01:39:32;42.75;;;20.95;;
2874;SDS011;1445;52.600;13.328;2023-02-15T01:41:57;41.65;;;18.67;;
2874;SDS011;1445;52.600;13.328;2023-02-15T01:47:10;44.97;;;19.88;;
2874;SDS011;1445;52.600;13.328;2023-02-15T01:49:39;43.17;;;18.35;;
2874;SDS011;1445;52.600;13.328;2023-02-15T01:52:06;39.88;;;18.17;;
2874;SDS011;1445;52.600;13.328;2023-02-15T01:54:34;40.40;;;18.83;;
2874;SDS011;1445;52.600;13.328;2023-02-15T01:57:03;41.03;;;19.10;;
2874;SDS011;1445;52.600;13.328;2023-02-15T01:59:51;42.50;;;18.83;;
2874;SDS011;1445;52.600;13.328;2023-02-15T02:02:19;41.40;;;19.80;;
2874;SDS011;1445;52.600;13.328;2023-02-15T02:04:49;45.40;;;20.92;;
2874;SDS011;1445;52.600;13.328;2023-02-15T02:07:17;39.17;;;18.48;;
2874;SDS011;1445;52.600;13.328;2023-02-15T02:09:46;46.35;;;20.20;;
2874;SDS011;1445;52.600;13.328;2023-02-15T02:12:13;41.50;;;18.73;;
2874;SDS011;1445;52.600;13.328;2023-02-15T02:14:39;40.65;;;19.55;;
2874;SDS011;1445;52.600;13.328;2023-02-15T02:39:09;50.00;;;21.13;;
2874;SDS011;1445;52.600;13.328;2023-02-15T02:41:48;51.97;;;22.42;;
2874;SDS011;1445;52.600;13.328;2023-02-15T02:50:14;42.67;;;19.52;;
2874;SDS011;1445;52.600;13.328;2023-02-15T02:52:48;48.00;;;21.77;;
2874;SDS011;1445;52.600;13.328;2023-02-15T02:55:20;50.72;;;21.77;;
2874;SDS011;1445;52.600;13.328;2023-02-15T03:00:41;45.92;;;20.77;;
2874;SDS011;1445;52.600;13.328;2023-02-15T03:03:08;53.83;;;21.80;;
2874;SDS011;1445;52.600;13.328;2023-02-15T03:05:41;50.00;;;21.83;;
2874;SDS011;1445;52.600;13.328;2023-02-15T03:08:11;48.60;;;22.45;;
2874;SDS011;1445;52.600;13.328;2023-02-15T03:10:46;50.33;;;22.73;;
2874;SDS011;1445;52.600;13.328;2023-02-15T03:13:13;54.92;;;23.55;;
2874;SDS011;1445;52.600;13.328;2023-02-15T03:15:40;50.40;;;22.83;;
2874;SDS011;1445;52.600;13.328;2023-02-15T03:18:31;52.08;;;22.27;;
2874;SDS011;1445;52.600;13.328;2023-02-15T03:21:02;58.00;;;23.73;;
2874;SDS011;1445;52.600;13.328;2023-02-15T03:23:31;55.28;;;22.15;;
2874;SDS011;1445;52.600;13.328;2023-02-15T03:26:01;56.50;;;22.33;;
2874;SDS011;1445;52.600;13.328;2023-02-15T03:28:41;51.05;;;22.67;;
2874;SDS011;1445;52.600;13.328;2023-02-15T03:31:09;55.55;;;23.95;;
2874;SDS011;1445;52.600;13.328;2023-02-15T03:33:40;53.45;;;23.25;;
2874;SDS011;1445;52.600;13.328;2023-02-15T03:36:49;55.40;;;22.80;;
2874;SDS011;1445;52.600;13.328;2023-02-15T03:42:31;57.20;;;22.90;;
2874;SDS011;1445;52.600;13.328;2023-02-15T03:47:41;66.28;;;26.05;;
2874;SDS011;1445;52.600;13.328;2023-02-15T03:50:11;68.47;;;26.52;;
2874;SDS011;1445;52.600;13.328;2023-02-15T03:52:59;63.58;;;25.05;;
2874;SDS011;1445;52.600;13.328;2023-02-15T03:55:28;69.07;;;27.35;;
2874;SDS011;1445;52.600;13.328;2023-02-15T03:57:54;71.97;;;28.52;;
2874;SDS011;1445;52.600;13.328;2023-02-15T04:00:40;73.75;;;27.95;;
2874;SDS011;1445;52.600;13.328;2023-02-15T04:03:33;71.55;;;28.02;;
2874;SDS011;1445;52.600;13.328;2023-02-15T04:06:08;73.22;;;27.88;;
2874;SDS011;1445;52.600;13.328;2023-02-15T04:08:34;72.13;;;26.80;;
2874;SDS011;1445;52.600;13.328;2023-02-15T04:11:17;69.05;;;27.45;;
2874;SDS011;1445;52.600;13.328;2023-02-15T04:13:43;75.65;;;29.48;;
2874;SDS011;1445;52.600;13.328;2023-02-15T04:16:09;69.20;;;26.17;;
2874;SDS011;1445;52.600;13.328;2023-02-15T04:18:38;68.55;;;26.95;;
2874;SDS011;1445;52.600;13.328;2023-02-15T04:21:25;71.35;;;28.67;;
2874;SDS011;1445;52.600;13.328;2023-02-15T04:24:10;76.45;;;28.67;;
2874;SDS011;1445;52.600;13.328;2023-02-15T04:26:55;79.65;;;29.83;;
2874;SDS011;1445;52.600;13.328;2023-02-15T04:29:21;79.88;;;30.05;;
2874;SDS011;1445;52.600;13.328;2023-02-15T04:31:48;74.05;;;28.45;;
2874;SDS011;1445;52.600;13.328;2023-02-15T04:34:14;68.00;;;26.98;;
2874;SDS011;1445;52.600;13.328;2023-02-15T04:36:39;80.25;;;29.83;;
2874;SDS011;1445;52.600;13.328;2023-02-15T04:39:05;78.93;;;29.48;;
2874;SDS011;1445;52.600;13.328;2023-02-15T04:41:32;74.25;;;29.00;;
2874;SDS011;1445;52.600;13.328;2023-02-15T04:43:58;74.45;;;28.90;;
2874;SDS011;1445;52.600;13.328;2023-02-15T04:46:24;81.55;;;31.38;;
2874;SDS011;1445;52.600;13.328;2023-02-15T04:48:50;74.47;;;29.33;;
2874;SDS011;1445;52.600;13.328;2023-02-15T04:51:15;71.25;;;28.25;;
2874;SDS011;1445;52.600;13.328;2023-02-15T04:53:41;71.05;;;27.60;;
2874;SDS011;1445;52.600;13.328;2023-02-15T04:56:06;73.30;;;27.63;;
2874;SDS011;1445;52.600;13.328;2023-02-15T04:58:31;68.40;;;26.65;;
2874;SDS011;1445;52.600;13.328;2023-02-15T05:00:57;78.07;;;28.85;;
2874;SDS011;1445;52.600;13.328;2023-02-15T05:03:23;73.82;;;28.40;;
2874;SDS011;1445;52.600;13.328;2023-02-15T05:05:49;81.88;;;32.35;;
2874;SDS011;1445;52.600;13.328;2023-02-15T05:08:14;75.28;;;30.33;;
2874;SDS011;1445;52.600;13.328;2023-02-15T05:10:40;74.03;;;28.73;;
2874;SDS011;1445;52.600;13.328;2023-02-15T05:13:05;71.28;;;27.60;;
2874;SDS011;1445;52.600;13.328;2023-02-15T05:15:31;78.05;;;28.60;;
2874;SDS011;1445;52.600;13.328;2023-02-15T05:17:56;75.95;;;29.40;;
2874;SDS011;1445;52.600;13.328;2023-02-15T05:20:21;76.50;;;28.35;;
2874;SDS011;1445;52.600;13.328;2023-02-15T05:22:47;73.53;;;29.40;;
2874;SDS011;1445;52.600;13.328;2023-02-15T05:25:12;68.75;;;27.77;;
2874;SDS011;1445;52.600;13.328;2023-02-15T05:27:56;69.07;;;27.00;;
2874;SDS011;1445;52.600;13.328;2023-02-15T05:30:40;78.15;;;30.45;;
2874;SDS011;1445;52.600;13.328;2023-02-15T05:33:06;71.03;;;28.23;;
2874;SDS011;1445;52.600;13.328;2023-02-15T05:35:32;74.65;;;27.77;;
2874;SDS011;1445;52.600;13.328;2023-02-15T05:37:59;70.13;;;29.30;;
2874;SDS011;1445;52.600;13.328;2023-02-15T05:40:24;71.40;;;27.90;;
2874;SDS011;1445;52.600;13.328;2023-02-15T05:42:49;73.90;;;30.00;;
2874;SDS011;1445;52.600;13.328;2023-02-15T05:45:15;72.63;;;29.23;;
2874;SDS011;1445;52.600;13.328;2023-02-15T05:47:40;75.93;;;28.02;;
2874;SDS011;1445;52.600;13.328;2023-02-15T05:50:06;70.65;;;29.52;;
2874;SDS011;1445;52.600;13.328;2023-02-15T05:52:32;72.75;;;29.23;;
2874;SDS011;1445;52.600;13.328;2023-02-15T05:54:58;70.20;;;27.75;;
2874;SDS011;1445;52.600;13.328;2023-02-15T05:57:25;71.97;;;30.23;;
2874;SDS011;1445;52.600;13.328;2023-02-15T05:59:50;71.40;;;29.73;;
2874;SDS011;1445;52.600;13.328;2023-02-15T06:02:16;72.75;;;28.63;;
2874;SDS011;1445;52.600;13.328;2023-02-15T06:04:41;68.10;;;27.15;;
2874;SDS011;1445;52.600;13.328;2023-02-15T06:07:06;68.68;;;27.83;;
2874;SDS011;1445;52.600;13.328;2023-02-15T06:09:32;70.88;;;27.13;;
2874;SDS011;1445;52.600;13.328;2023-02-15T06:11:57;64.32;;;27.20;;
2874;SDS011;1445;52.600;13.328;2023-02-15T06:14:22;69.10;;;27.67;;
2874;SDS011;1445;52.600;13.328;2023-02-15T06:16:48;69.15;;;27.95;;
2874;SDS011;1445;52.600;13.328;2023-02-15T06:19:13;75.15;;;29.83;;
2874;SDS011;1445;52.600;13.328;2023-02-15T06:21:39;71.80;;;28.88;;
2874;SDS011;1445;52.600;13.328;2023-02-15T06:24:04;65.40;;;26.40;;
2874;SDS011;1445;52.600;13.328;2023-02-15T06:26:29;76.47;;;28.45;;
2874;SDS011;1445;52.600;13.328;2023-02-15T06:28:55;69.38;;;28.08;;
2874;SDS011;1445;52.600;13.328;2023-02-15T06:31:20;74.43;;;29.08;;
2874;SDS011;1445;52.600;13.328;2023-02-15T06:33:46;73.82;;;27.90;;
2874;SDS011;1445;52.600;13.328;2023-02-15T06:36:11;71.80;;;27.35;;
2874;SDS011;1445;52.600;13.328;2023-02-15T06:38:37;78.32;;;31.33;;
2874;SDS011;1445;52.600;13.328;2023-02-15T06:41:03;82.70;;;31.33;;
2874;SDS011;1445;52.600;13.328;2023-02-15T06:43:28;73.38;;;29.13;;
2874;SDS011;1445;52.600;13.328;2023-02-15T06:45:53;84.07;;;30.75;;
2874;SDS011;1445;52.600;13.328;2023-02-15T06:48:19;82.47;;;30.75;;
2874;SDS011;1445;52.600;13.328;2023-02-15T06:50:44;80.97;;;31.20;;
2874;SDS011;1445;52.600;13.328;2023-02-15T06:53:10;86.43;;;32.95;;
2874;SDS011;1445;52.600;13.328;2023-02-15T06:55:35;80.53;;;28.73;;
2874;SDS011;1445;52.600;13.328;2023-02-15T06:58:00;87.30;;;31.50;;
2874;SDS011;1445;52.600;13.328;2023-02-15T07:00:26;78.43;;;30.48;;
2874;SDS011;1445;52.600;13.328;2023-02-15T07:02:55;80.20;;;31.45;;
2874;SDS011;1445;52.600;13.328;2023-02-15T07:05:22;87.15;;;31.17;;
2874;SDS011;1445;52.600;13.328;2023-02-15T07:07:48;94.20;;;33.22;;
2874;SDS011;1445;52.600;13.328;2023-02-15T07:10:13;90.00;;;33.17;;
2874;SDS011;1445;52.600;13.328;2023-02-15T07:12:38;91.60;;;31.83;;
2874;SDS011;1445;52.600;13.328;2023-02-15T07:15:08;93.65;;;31.02;;
2874;SDS011;1445;52.600;13.328;2023-02-15T07:17:34;91.00;;;32.83;;
2874;SDS011;1445;52.600;13.328;2023-02-15T07:20:01;90.82;;;31.13;;
2874;SDS011;1445;52.600;13.328;2023-02-15T07:22:28;90.97;;;32.63;;
2874;SDS011;1445;52.600;13.328;2023-02-15T07:24:53;87.75;;;31.38;;
2874;SDS011;1445;52.600;13.328;2023-02-15T07:27:20;90.88;;;31.83;;
2874;SDS011;1445;52.600;13.328;2023-02-15T07:29:46;90.13;;;32.88;;
2874;SDS011;1445;52.600;13.328;2023-02-15T07:32:11;86.13;;;31.52;;
2874;SDS011;1445;52.600;13.328;2023-02-15T07:34:37;85.15;;;31.90;;
2874;SDS011;1445;52.600;13.328;2023-02-15T07:37:02;87.82;;;32.83;;
2874;SDS011;1445;52.600;13.328;2023-02-15T07:39:27;92.30;;;33.55;;
2874;SDS011;1445;52.600;13.328;2023-02-15T07:41:53;95.03;;;34.55;;
2874;SDS011;1445;52.600;13.328;2023-02-15T07:44:18;85.28;;;31.45;;
2874;SDS011;1445;52.600;13.328;2023-02-15T07:46:44;92.57;;;32.63;;
2874;SDS011;1445;52.600;13.328;2023-02-15T07:49:09;89.05;;;32.80;;
2874;SDS011;1445;52.600;13.328;2023-02-15T07:51:34;92.30;;;34.72;;
2874;SDS011;1445;52.600;13.328;2023-02-15T07:54:00;92.22;;;34.22;;
2874;SDS011;1445;52.600;13.328;2023-02-15T07:56:25;90.88;;;33.63;;
2874;SDS011;1445;52.600;13.328;2023-02-15T07:58:50;90.72;;;34.60;;
2874;SDS011;1445;52.600;13.328;2023-02-15T08:01:17;90.15;;;32.83;;
2874;SDS011;1445;52.600;13.328;2023-02-15T08:03:43;92.68;;;32.92;;
2874;SDS011;1445;52.600;13.328;2023-02-15T08:06:08;85.80;;;33.17;;
2874;SDS011;1445;52.600;13.328;2023-02-15T08:08:36;85.47;;;31.63;;
2874;SDS011;1445;52.600;13.328;2023-02-15T08:11:03;85.50;;;31.15;;
2874;SDS011;1445;52.600;13.328;2023-02-15T08:13:54;91.07;;;32.05;;
2874;SDS011;1445;52.600;13.328;2023-02-15T08:19:07;92.32;;;33.22;;
2874;SDS011;1445;52.600;13.328;2023-02-15T08:21:35;95.93;;;32.40;;
2874;SDS011;1445;52.600;13.328;2023-02-15T08:24:02;99.15;;;34.08;;
2874;SDS011;1445;52.600;13.328;2023-02-15T08:26:29;104.68;;;36.55;;
2874;SDS011;1445;52.600;13.328;2023-02-15T08:28:55;97.68;;;34.00;;
2874;SDS011;1445;52.600;13.328;2023-02-15T08:31:21;92.05;;;33.70;;
2874;SDS011;1445;52.600;13.328;2023-02-15T08:33:47;86.82;;;32.80;;
2874;SDS011;1445;52.600;13.328;2023-02-15T08:36:15;87.45;;;30.80;;
2874;SDS011;1445;52.600;13.328;2023-02-15T08:38:43;92.63;;;31.38;;
2874;SDS011;1445;52.600;13.328;2023-02-15T08:41:18;78.53;;;30.80;;
2874;SDS011;1445;52.600;13.328;2023-02-15T08:43:50;85.78;;;34.22;;
2874;SDS011;1445;52.600;13.328;2023-02-15T08:46:18;84.57;;;32.65;;
2874;SDS011;1445;52.600;13.328;2023-02-15T08:48:45;81.15;;;31.83;;
2874;SDS011;1445;52.600;13.328;2023-02-15T08:51:13;80.40;;;32.13;;
2874;SDS011;1445;52.600;13.328;2023-02-15T08:53:43;83.93;;;31.70;;
2874;SDS011;1445;52.600;13.328;2023-02-15T08:56:10;96.10;;;31.48;;
2874;SDS011;1445;52.600;13.328;2023-02-15T08:58:37;100.20;;;32.20;;
2874;SDS011;1445;52.600;13.328;2023-02-15T09:01:10;76.07;;;27.92;;
2874;SDS011;1445;52.600;13.328;2023-02-15T09:03:37;68.43;;;29.02;;
2874;SDS011;1445;52.600;13.328;2023-02-15T09:06:03;69.82;;;28.25;;
2874;SDS011;1445;52.600;13.328;2023-02-15T09:08:29;69.13;;;29.08;;
2874;SDS011;1445;52.600;13.328;2023-02-15T09:11:03;76.35;;;26.33;;
2874;SDS011;1445;52.600;13.328;2023-02-15T09:13:33;78.63;;;29.75;;
2874;SDS011;1445;52.600;13.328;2023-02-15T09:16:02;69.28;;;29.35;;
2874;SDS011;1445;52.600;13.328;2023-02-15T09:18:30;63.38;;;27.23;;
2874;SDS011;1445;52.600;13.328;2023-02-15T09:21:03;74.80;;;29.50;;
2874;SDS011;1445;52.600;13.328;2023-02-15T09:23:38;72.75;;;28.67;;
2874;SDS011;1445;52.600;13.328;2023-02-15T09:26:16;66.57;;;29.52;;
2874;SDS011;1445;52.600;13.328;2023-02-15T09:28:42;64.97;;;27.60;;
2874;SDS011;1445;52.600;13.328;2023-02-15T09:31:15;62.28;;;26.30;;
2874;SDS011;1445;52.600;13.328;2023-02-15T09:36:18;62.25;;;26.10;;
2874;SDS011;1445;52.600;13.328;2023-02-15T09:38:52;58.60;;;25.58;;
2874;SDS011;1445;52.600;13.328;2023-02-15T09:50:11;52.05;;;24.00;;
2874;SDS011;1445;52.600;13.328;2023-02-15T10:01:05;50.47;;;24.75;;
2874;SDS011;1445;52.600;13.328;2023-02-15T10:06:42;57.53;;;26.63;;
2874;SDS011;1445;52.600;13.328;2023-02-15T10:22:43;45.55;;;23.40;;
2874;SDS011;1445;52.600;13.328;2023-02-15T10:28:04;50.33;;;23.15;;
2874;SDS011;1445;52.600;13.328;2023-02-15T10:30:46;44.45;;;23.35;;
2874;SDS011;1445;52.600;13.328;2023-02-15T10:38:51;52.88;;;25.70;;
2874;SDS011;1445;52.600;13.328;2023-02-15T11:03:30;40.22;;;20.80;;
2874;SDS011;1445;52.600;13.328;2023-02-15T11:08:39;37.35;;;20.13;;
2874;SDS011;1445;52.600;13.328;2023-02-15T11:11:09;36.70;;;19.65;;
2874;SDS011;1445;52.600;13.328;2023-02-15T11:13:40;35.28;;;19.70;;
2874;SDS011;1445;52.600;13.328;2023-02-15T11:16:12;35.55;;;20.23;;
2874;SDS011;1445;52.600;13.328;2023-02-15T11:18:44;34.40;;;18.63;;
2874;SDS011;1445;52.600;13.328;2023-02-15T11:21:22;39.60;;;19.40;;
2874;SDS011;1445;52.600;13.328;2023-02-15T11:23:52;38.35;;;19.33;;
2874;SDS011;1445;52.600;13.328;2023-02-15T11:28:47;34.35;;;19.02;;
2874;SDS011;1445;52.600;13.328;2023-02-15T11:31:17;37.50;;;19.90;;
2874;SDS011;1445;52.600;13.328;2023-02-15T11:33:47;30.95;;;18.75;;
2874;SDS011;1445;52.600;13.328;2023-02-15T11:38:50;31.42;;;18.10;;
2874;SDS011;1445;52.600;13.328;2023-02-15T11:41:24;31.98;;;17.70;;
2874;SDS011;1445;52.600;13.328;2023-02-15T11:43:59;31.80;;;18.50;;
2874;SDS011;1445;52.600;13.328;2023-02-15T11:46:32;32.80;;;18.60;;
2874;SDS011;1445;52.600;13.328;2023-02-15T11:48:57;30.73;;;17.65;;
2874;SDS011;1445;52.600;13.328;2023-02-15T11:51:23;32.15;;;18.27;;
2874;SDS011;1445;52.600;13.328;2023-02-15T11:53:49;36.97;;;19.63;;
2874;SDS011;1445;52.600;13.328;2023-02-15T11:56:17;25.85;;;15.52;;
2874;SDS011;1445;52.600;13.328;2023-02-15T11:58:54;27.52;;;16.83;;
2874;SDS011;1445;52.600;13.328;2023-02-15T12:06:59;25.95;;;16.10;;
2874;SDS011;1445;52.600;13.328;2023-02-15T12:09:55;29.00;;;16.67;;
2874;SDS011;1445;52.600;13.328;2023-02-15T12:12:26;26.35;;;17.15;;
2874;SDS011;1445;52.600;13.328;2023-02-15T12:14:54;24.55;;;16.05;;
2874;SDS011;1445;52.600;13.328;2023-02-15T12:17:21;26.65;;;16.15;;
2874;SDS011;1445;52.600;13.328;2023-02-15T12:19:52;22.63;;;15.95;;
2874;SDS011;1445;52.600;13.328;2023-02-15T12:24:51;25.95;;;14.82;;
2874;SDS011;1445;52.600;13.328;2023-02-15T12:27:29;28.13;;;16.30;;
2874;SDS011;1445;52.600;13.328;2023-02-15T12:30:01;25.48;;;15.48;;
2874;SDS011;1445;52.600;13.328;2023-02-15T12:32:36;23.38;;;14.90;;
2874;SDS011;1445;52.600;13.328;2023-02-15T12:35:14;24.10;;;15.13;;
2874;SDS011;1445;52.600;13.328;2023-02-15T12:38:35;23.05;;;15.15;;
2874;SDS011;1445;52.600;13.328;2023-02-15T12:40:41;22.08;;;14.90;;
2874;SDS011;1445;52.600;13.328;2023-02-15T12:43:30;21.50;;;14.00;;
2874;SDS011;1445;52.600;13.328;2023-02-15T12:48:44;22.25;;;13.25;;
2874;SDS011;1445;52.600;13.328;2023-02-15T12:51:13;20.13;;;14.07;;
2874;SDS011;1445;52.600;13.328;2023-02-15T12:53:40;21.55;;;14.35;;
2874;SDS011;1445;52.600;13.328;2023-02-15T12:56:06;19.83;;;13.30;;
2874;SDS011;1445;52.600;13.328;2023-02-15T12:58:40;24.30;;;14.45;;
2874;SDS011;1445;52.600;13.328;2023-02-15T13:01:17;21.60;;;13.57;;
2874;SDS011;1445;52.600;13.328;2023-02-15T13:04:03;24.05;;;14.82;;
2874;SDS011;1445;52.600;13.328;2023-02-15T13:06:32;20.08;;;13.57;;
2874;SDS011;1445;52.600;13.328;2023-02-15T13:09:12;23.58;;;14.48;;
2874;SDS011;1445;52.600;13.328;2023-02-15T13:11:41;19.25;;;12.50;;
2874;SDS011;1445;52.600;13.328;2023-02-15T13:14:18;19.58;;;13.65;;
2874;SDS011;1445;52.600;13.328;2023-02-15T13:16:45;20.05;;;13.10;;
2874;SDS011;1445;52.600;13.328;2023-02-15T13:22:03;21.65;;;13.93;;
2874;SDS011;1445;52.600;13.328;2023-02-15T13:24:46;21.40;;;13.68;;
2874;SDS011;1445;52.600;13.328;2023-02-15T13:27:15;21.92;;;15.02;;
2874;SDS011;1445;52.600;13.328;2023-02-15T13:29:44;22.30;;;14.05;;
2874;SDS011;1445;52.600;13.328;2023-02-15T13:34:44;20.08;;;13.40;;
2874;SDS011;1445;52.600;13.328;2023-02-15T13:37:13;20.83;;;13.20;;
2874;SDS011;1445;52.600;13.328;2023-02-15T13:40:02;22.08;;;13.90;;
2874;SDS011;1445;52.600;13.328;2023-02-15T13:53:40;21.95;;;14.50;;
2874;SDS011;1445;52.600;13.328;2023-02-15T13:56:47;24.38;;;14.95;;
2874;SDS011;1445;52.600;13.328;2023-02-15T13:59:30;22.90;;;14.13;;
2874;SDS011;1445;52.600;13.328;2023-02-15T14:10:29;22.55;;;15.25;;
2874;SDS011;1445;52.600;13.328;2023-02-15T14:13:19;21.88;;;13.73;;
2874;SDS011;1445;52.600;13.328;2023-02-15T14:21:32;21.30;;;13.88;;
2874;SDS011;1445;52.600;13.328;2023-02-15T14:31:57;21.98;;;14.57;;
2874;SDS011;1445;52.600;13.328;2023-02-15T14:37:00;23.58;;;14.90;;
2874;SDS011;1445;52.600;13.328;2023-02-15T14:39:42;21.13;;;14.73;;
2874;SDS011;1445;52.600;13.328;2023-02-15T14:45:35;22.10;;;14.75;;
2874;SDS011;1445;52.600;13.328;2023-02-15T14:48:21;23.42;;;15.43;;
2874;SDS011;1445;52.600;13.328;2023-02-15T14:50:56;21.30;;;14.25;;
2874;SDS011;1445;52.600;13.328;2023-02-15T14:53:39;22.02;;;14.98;;
2874;SDS011;1445;52.600;13.328;2023-02-15T14:58:54;24.23;;;15.20;;
2874;SDS011;1445;52.600;13.328;2023-02-15T15:01:33;19.80;;;13.25;;
2874;SDS011;1445;52.600;13.328;2023-02-15T15:04:05;21.40;;;14.05;;
2874;SDS011;1445;52.600;13.328;2023-02-15T15:06:34;22.75;;;14.60;;
2874;SDS011;1445;52.600;13.328;2023-02-15T15:09:12;22.75;;;14.50;;
2874;SDS011;1445;52.600;13.328;2023-02-15T15:11:49;20.20;;;14.07;;
2874;SDS011;1445;52.600;13.328;2023-02-15T15:16:56;19.85;;;13.45;;
2874;SDS011;1445;52.600;13.328;2023-02-15T15:22:19;19.65;;;13.75;;
2874;SDS011;1445;52.600;13.328;2023-02-15T15:40:41;20.40;;;13.10;;
2874;SDS011;1445;52.600;13.328;2023-02-15T15:49:08;19.15;;;13.80;;
2874;SDS011;1445;52.600;13.328;2023-02-15T15:51:39;19.42;;;13.43;;
2874;SDS011;1445;52.600;13.328;2023-02-15T15:54:11;20.17;;;13.00;;
2874;SDS011;1445;52.600;13.328;2023-02-15T15:56:40;17.60;;;12.80;;
2874;SDS011;1445;52.600;13.328;2023-02-15T15:59:13;16.90;;;11.48;;
2874;SDS011;1445;52.600;13.328;2023-02-15T16:04:11;19.27;;;13.05;;
2874;SDS011;1445;52.600;13.328;2023-02-15T16:06:39;20.35;;;13.25;;
2874;SDS011;1445;52.600;13.328;2023-02-15T16:09:12;22.88;;;14.10;;
2874;SDS011;1445;52.600;13.328;2023-02-15T16:11:44;21.85;;;13.88;;
2874;SDS011;1445;52.600;13.328;2023-02-15T16:14:13;20.63;;;14.10;;
2874;SDS011;1445;52.600;13.328;2023-02-15T16:16:45;19.92;;;12.90;;
2874;SDS011;1445;52.600;13.328;2023-02-15T16:19:45;21.48;;;13.45;;
2874;SDS011;1445;52.600;13.328;2023-02-15T16:22:13;20.73;;;13.48;;
2874;SDS011;1445;52.600;13.328;2023-02-15T16:27:33;22.63;;;13.90;;
2874;SDS011;1445;52.600;13.328;2023-02-15T16:32:55;22.48;;;13.55;;
2874;SDS011;1445;52.600;13.328;2023-02-15T16:35:28;24.02;;;14.13;;
2874;SDS011;1445;52.600;13.328;2023-02-15T16:37:54;29.27;;;15.98;;
2874;SDS011;1445;52.600;13.328;2023-02-15T16:42:47;23.80;;;15.45;;
2874;SDS011;1445;52.600;13.328;2023-02-15T16:45:15;27.48;;;14.98;;
2874;SDS011;1445;52.600;13.328;2023-02-15T16:47:45;22.10;;;13.25;;
2874;SDS011;1445;52.600;13.328;2023-02-15T16:50:20;24.05;;;15.05;;
2874;SDS011;1445;52.600;13.328;2023-02-15T16:52:49;25.35;;;15.65;;
2874;SDS011;1445;52.600;13.328;2023-02-15T16:55:23;24.83;;;14.95;;
2874;SDS011;1445;52.600;13.328;2023-02-15T16:57:55;28.75;;;14.60;;
2874;SDS011;1445;52.600;13.328;2023-02-15T17:00:25;25.00;;;15.45;;
2874;SDS011;1445;52.600;13.328;2023-02-15T17:02:54;29.40;;;14.98;;
2874;SDS011;1445;52.600;13.328;2023-02-15T17:08:18;31.30;;;15.27;;
2874;SDS011;1445;52.600;13.328;2023-02-15T17:11:04;28.77;;;16.95;;
2874;SDS011;1445;52.600;13.328;2023-02-15T17:13:40;25.50;;;15.07;;
2874;SDS011;1445;52.600;13.328;2023-02-15T17:16:28;28.58;;;14.98;;
2874;SDS011;1445;52.600;13.328;2023-02-15T17:18:57;26.25;;;15.35;;
2874;SDS011;1445;52.600;13.328;2023-02-15T17:21:27;24.23;;;14.73;;
2874;SDS011;1445;52.600;13.328;2023-02-15T17:24:01;25.45;;;15.23;;
2874;SDS011;1445;52.600;13.328;2023-02-15T17:26:36;28.13;;;16.70;;
2874;SDS011;1445;52.600;13.328;2023-02-15T17:31:36;28.35;;;16.25;;
2874;SDS011;1445;52.600;13.328;2023-02-15T17:34:02;28.85;;;16.13;;
2874;SDS011;1445;52.600;13.328;2023-02-15T17:36:29;28.00;;;16.60;;
2874;SDS011;1445;52.600;13.328;2023-02-15T17:39:00;27.90;;;16.17;;
2874;SDS011;1445;52.600;13.328;2023-02-15T17:41:30;31.08;;;17.83;;
2874;SDS011;1445;52.600;13.328;2023-02-15T17:43:57;28.67;;;17.55;;
2874;SDS011;1445;52.600;13.328;2023-02-15T17:46:23;27.67;;;16.52;;
2874;SDS011;1445;52.600;13.328;2023-02-15T17:48:51;32.15;;;18.60;;
2874;SDS011;1445;52.600;13.328;2023-02-15T17:51:17;34.17;;;18.92;;
2874;SDS011;1445;52.600;13.328;2023-02-15T17:53:44;31.58;;;17.67;;
2874;SDS011;1445;52.600;13.328;2023-02-15T17:56:30;29.85;;;17.40;;
2874;SDS011;1445;52.600;13.328;2023-02-15T17:58:56;33.75;;;19.40;;
2874;SDS011;1445;52.600;13.328;2023-02-15T18:01:22;30.83;;;18.25;;
2874;SDS011;1445;52.600;13.328;2023-02-15T18:04:12;32.22;;;19.35;;
2874;SDS011;1445;52.600;13.328;2023-02-15T18:06:57;32.90;;;19.05;;
2874;SDS011;1445;52.600;13.328;2023-02-15T18:09:42;36.30;;;20.77;;
2874;SDS011;1445;52.600;13.328;2023-02-15T18:12:27;36.20;;;20.20;;
2874;SDS011;1445;52.600;13.328;2023-02-15T18:14:54;34.95;;;19.25;;
2874;SDS011;1445;52.600;13.328;2023-02-15T18:17:26;38.35;;;20.55;;
2874;SDS011;1445;52.600;13.328;2023-02-15T18:19:55;35.97;;;20.27;;
2874;SDS011;1445;52.600;13.328;2023-02-15T18:22:20;35.22;;;19.63;;
2874;SDS011;1445;52.600;13.328;2023-02-15T18:24:46;36.97;;;21.52;;
2874;SDS011;1445;52.600;13.328;2023-02-15T18:27:13;38.20;;;21.88;;
2874;SDS011;1445;52.600;13.328;2023-02-15T18:29:39;38.05;;;20.98;;